Terminal Aerodrome Forecast
Issued by NWS

Home | Current Version | Previous Version | Text Only | Print | Product List | Glossary On
Versions: 1 2 3 4 5 6 7 8 9 10 11 12 13 14 15 16 17 18 19
000
FTUS43 KILX 291735
TAFDEC
TAF
KDEC 291735Z 2918/3018 33010G18KT P6SM SCT020 SCT250
      TEMPO 2919/2922 BKN020
     FM300100 29006KT P6SM SKC=

USA.gov is the U.S. government's official web portal to all federal, state and local government web resources and services.